sensor_id;sensor_type;location;lat;lon;timestamp;P1;durP1;ratioP1;P2;durP2;ratioP2
4055;SDS011;2043;52.184;8.690;2023-05-07T00:01:57;34.33;;;23.77;;
4055;SDS011;2043;52.184;8.690;2023-05-07T00:04:24;41.57;;;25.03;;
4055;SDS011;2043;52.184;8.690;2023-05-07T00:06:51;38.73;;;24.10;;
4055;SDS011;2043;52.184;8.690;2023-05-07T00:09:18;39.53;;;23.07;;
4055;SDS011;2043;52.184;8.690;2023-05-07T00:11:45;38.33;;;23.60;;
4055;SDS011;2043;52.184;8.690;2023-05-07T00:14:11;37.60;;;24.20;;
4055;SDS011;2043;52.184;8.690;2023-05-07T00:16:38;42.57;;;24.90;;
4055;SDS011;2043;52.184;8.690;2023-05-07T00:19:05;37.00;;;23.43;;
4055;SDS011;2043;52.184;8.690;2023-05-07T00:21:32;38.60;;;24.80;;
4055;SDS011;2043;52.184;8.690;2023-05-07T00:23:58;36.27;;;22.40;;
4055;SDS011;2043;52.184;8.690;2023-05-07T00:26:25;38.60;;;24.80;;
4055;SDS011;2043;52.184;8.690;2023-05-07T00:28:52;36.60;;;23.43;;
4055;SDS011;2043;52.184;8.690;2023-05-07T00:31:19;40.87;;;24.90;;
4055;SDS011;2043;52.184;8.690;2023-05-07T00:33:46;32.10;;;22.67;;
4055;SDS011;2043;52.184;8.690;2023-05-07T00:36:13;32.87;;;22.30;;
4055;SDS011;2043;52.184;8.690;2023-05-07T00:38:40;41.23;;;24.50;;
4055;SDS011;2043;52.184;8.690;2023-05-07T00:41:07;37.77;;;24.70;;
4055;SDS011;2043;52.184;8.690;2023-05-07T00:43:34;35.27;;;23.27;;
4055;SDS011;2043;52.184;8.690;2023-05-07T00:46:00;48.90;;;23.73;;
4055;SDS011;2043;52.184;8.690;2023-05-07T00:48:28;35.83;;;23.90;;
4055;SDS011;2043;52.184;8.690;2023-05-07T00:50:54;36.70;;;24.23;;
4055;SDS011;2043;52.184;8.690;2023-05-07T00:53:22;35.33;;;22.40;;
4055;SDS011;2043;52.184;8.690;2023-05-07T00:55:49;36.73;;;24.20;;
4055;SDS011;2043;52.184;8.690;2023-05-07T00:58:16;38.03;;;24.70;;
4055;SDS011;2043;52.184;8.690;2023-05-07T01:00:43;39.57;;;23.60;;
4055;SDS011;2043;52.184;8.690;2023-05-07T01:03:10;43.47;;;23.97;;
4055;SDS011;2043;52.184;8.690;2023-05-07T01:05:37;35.30;;;22.60;;
4055;SDS011;2043;52.184;8.690;2023-05-07T01:08:04;34.80;;;23.60;;
4055;SDS011;2043;52.184;8.690;2023-05-07T01:10:32;36.50;;;23.93;;
4055;SDS011;2043;52.184;8.690;2023-05-07T01:12:58;38.57;;;22.73;;
4055;SDS011;2043;52.184;8.690;2023-05-07T01:15:26;39.67;;;24.70;;
4055;SDS011;2043;52.184;8.690;2023-05-07T01:17:53;35.17;;;23.40;;
4055;SDS011;2043;52.184;8.690;2023-05-07T01:20:22;34.77;;;22.67;;
4055;SDS011;2043;52.184;8.690;2023-05-07T01:22:49;39.57;;;23.67;;
4055;SDS011;2043;52.184;8.690;2023-05-07T01:25:16;36.50;;;23.67;;
4055;SDS011;2043;52.184;8.690;2023-05-07T01:27:44;36.30;;;23.40;;
4055;SDS011;2043;52.184;8.690;2023-05-07T01:30:11;37.30;;;23.10;;
4055;SDS011;2043;52.184;8.690;2023-05-07T01:35:12;34.13;;;22.70;;
4055;SDS011;2043;52.184;8.690;2023-05-07T01:37:43;38.60;;;22.97;;
4055;SDS011;2043;52.184;8.690;2023-05-07T01:40:10;38.83;;;22.60;;
4055;SDS011;2043;52.184;8.690;2023-05-07T01:42:38;34.53;;;22.17;;
4055;SDS011;2043;52.184;8.690;2023-05-07T01:45:06;34.00;;;22.27;;
4055;SDS011;2043;52.184;8.690;2023-05-07T01:47:33;36.20;;;22.20;;
4055;SDS011;2043;52.184;8.690;2023-05-07T01:50:02;36.20;;;24.40;;
4055;SDS011;2043;52.184;8.690;2023-05-07T01:52:31;41.13;;;24.40;;
4055;SDS011;2043;52.184;8.690;2023-05-07T01:54:58;36.00;;;22.87;;
4055;SDS011;2043;52.184;8.690;2023-05-07T01:57:25;35.47;;;23.33;;
4055;SDS011;2043;52.184;8.690;2023-05-07T01:59:51;38.80;;;23.20;;
4055;SDS011;2043;52.184;8.690;2023-05-07T02:02:18;38.93;;;23.80;;
4055;SDS011;2043;52.184;8.690;2023-05-07T02:04:45;41.03;;;25.03;;
4055;SDS011;2043;52.184;8.690;2023-05-07T02:07:12;34.60;;;23.63;;
4055;SDS011;2043;52.184;8.690;2023-05-07T02:09:38;39.20;;;23.23;;
4055;SDS011;2043;52.184;8.690;2023-05-07T02:12:05;40.00;;;24.93;;
4055;SDS011;2043;52.184;8.690;2023-05-07T02:14:32;35.57;;;23.20;;
4055;SDS011;2043;52.184;8.690;2023-05-07T02:16:59;33.77;;;22.10;;
4055;SDS011;2043;52.184;8.690;2023-05-07T02:19:26;36.73;;;23.77;;
4055;SDS011;2043;52.184;8.690;2023-05-07T02:21:52;35.17;;;24.07;;
4055;SDS011;2043;52.184;8.690;2023-05-07T02:24:19;41.80;;;24.70;;
4055;SDS011;2043;52.184;8.690;2023-05-07T02:26:46;37.83;;;23.43;;
4055;SDS011;2043;52.184;8.690;2023-05-07T02:29:13;39.50;;;24.60;;
4055;SDS011;2043;52.184;8.690;2023-05-07T02:31:40;36.00;;;23.40;;
4055;SDS011;2043;52.184;8.690;2023-05-07T02:34:06;37.80;;;23.57;;
4055;SDS011;2043;52.184;8.690;2023-05-07T02:36:33;35.90;;;23.80;;
4055;SDS011;2043;52.184;8.690;2023-05-07T02:39:00;41.80;;;24.83;;
4055;SDS011;2043;52.184;8.690;2023-05-07T02:41:26;38.30;;;23.73;;
4055;SDS011;2043;52.184;8.690;2023-05-07T02:43:54;36.37;;;24.57;;
4055;SDS011;2043;52.184;8.690;2023-05-07T02:46:20;37.33;;;25.10;;
4055;SDS011;2043;52.184;8.690;2023-05-07T02:48:48;38.30;;;24.40;;
4055;SDS011;2043;52.184;8.690;2023-05-07T02:51:16;44.40;;;25.00;;
4055;SDS011;2043;52.184;8.690;2023-05-07T02:53:50;36.37;;;23.57;;
4055;SDS011;2043;52.184;8.690;2023-05-07T02:56:17;37.53;;;24.10;;
4055;SDS011;2043;52.184;8.690;2023-05-07T02:58:43;41.87;;;25.77;;
4055;SDS011;2043;52.184;8.690;2023-05-07T03:01:10;43.23;;;25.37;;
4055;SDS011;2043;52.184;8.690;2023-05-07T03:03:38;43.10;;;25.90;;
4055;SDS011;2043;52.184;8.690;2023-05-07T03:06:05;40.90;;;26.57;;
4055;SDS011;2043;52.184;8.690;2023-05-07T03:08:32;40.70;;;26.17;;
4055;SDS011;2043;52.184;8.690;2023-05-07T03:10:59;40.30;;;26.03;;
4055;SDS011;2043;52.184;8.690;2023-05-07T03:13:26;39.80;;;26.53;;
4055;SDS011;2043;52.184;8.690;2023-05-07T03:15:53;41.90;;;27.63;;
4055;SDS011;2043;52.184;8.690;2023-05-07T03:18:20;38.90;;;26.10;;
4055;SDS011;2043;52.184;8.690;2023-05-07T03:20:48;47.57;;;27.77;;
4055;SDS011;2043;52.184;8.690;2023-05-07T03:23:15;45.90;;;27.30;;
4055;SDS011;2043;52.184;8.690;2023-05-07T03:25:41;40.67;;;26.40;;
4055;SDS011;2043;52.184;8.690;2023-05-07T03:28:08;41.57;;;26.90;;
4055;SDS011;2043;52.184;8.690;2023-05-07T03:30:35;42.33;;;27.33;;
4055;SDS011;2043;52.184;8.690;2023-05-07T03:33:01;44.40;;;26.93;;
4055;SDS011;2043;52.184;8.690;2023-05-07T03:35:28;51.00;;;27.60;;
4055;SDS011;2043;52.184;8.690;2023-05-07T03:37:55;44.00;;;28.10;;
4055;SDS011;2043;52.184;8.690;2023-05-07T03:40:22;48.40;;;28.93;;
4055;SDS011;2043;52.184;8.690;2023-05-07T03:42:48;43.10;;;27.20;;
4055;SDS011;2043;52.184;8.690;2023-05-07T03:45:15;44.53;;;27.17;;
4055;SDS011;2043;52.184;8.690;2023-05-07T03:47:42;45.83;;;28.80;;
4055;SDS011;2043;52.184;8.690;2023-05-07T03:50:09;47.53;;;30.17;;
4055;SDS011;2043;52.184;8.690;2023-05-07T03:52:37;48.90;;;30.47;;
4055;SDS011;2043;52.184;8.690;2023-05-07T03:55:04;46.43;;;27.47;;
4055;SDS011;2043;52.184;8.690;2023-05-07T03:57:31;45.40;;;27.60;;
4055;SDS011;2043;52.184;8.690;2023-05-07T03:59:58;47.00;;;27.93;;
4055;SDS011;2043;52.184;8.690;2023-05-07T04:02:26;48.50;;;27.33;;
4055;SDS011;2043;52.184;8.690;2023-05-07T04:04:53;49.23;;;29.00;;
4055;SDS011;2043;52.184;8.690;2023-05-07T04:07:20;44.83;;;28.40;;
4055;SDS011;2043;52.184;8.690;2023-05-07T04:09:47;52.00;;;28.60;;
4055;SDS011;2043;52.184;8.690;2023-05-07T04:12:14;47.63;;;30.20;;
4055;SDS011;2043;52.184;8.690;2023-05-07T04:14:41;46.80;;;28.27;;
4055;SDS011;2043;52.184;8.690;2023-05-07T04:17:08;51.33;;;28.70;;
4055;SDS011;2043;52.184;8.690;2023-05-07T04:19:36;47.53;;;27.57;;
4055;SDS011;2043;52.184;8.690;2023-05-07T04:22:03;56.93;;;31.60;;
4055;SDS011;2043;52.184;8.690;2023-05-07T04:24:33;48.40;;;29.70;;
4055;SDS011;2043;52.184;8.690;2023-05-07T04:26:59;49.17;;;29.47;;
4055;SDS011;2043;52.184;8.690;2023-05-07T04:29:26;48.33;;;29.00;;
4055;SDS011;2043;52.184;8.690;2023-05-07T04:31:53;50.30;;;30.00;;
4055;SDS011;2043;52.184;8.690;2023-05-07T04:34:21;47.63;;;27.73;;
4055;SDS011;2043;52.184;8.690;2023-05-07T04:36:48;49.87;;;28.53;;
4055;SDS011;2043;52.184;8.690;2023-05-07T04:39:15;47.50;;;28.13;;
4055;SDS011;2043;52.184;8.690;2023-05-07T04:41:42;54.63;;;28.37;;
4055;SDS011;2043;52.184;8.690;2023-05-07T04:44:09;52.30;;;29.53;;
4055;SDS011;2043;52.184;8.690;2023-05-07T04:46:37;51.93;;;29.20;;
4055;SDS011;2043;52.184;8.690;2023-05-07T04:49:03;46.07;;;26.40;;
4055;SDS011;2043;52.184;8.690;2023-05-07T04:51:31;50.63;;;29.33;;
4055;SDS011;2043;52.184;8.690;2023-05-07T04:53:58;50.80;;;27.77;;
4055;SDS011;2043;52.184;8.690;2023-05-07T04:56:27;44.33;;;27.43;;
4055;SDS011;2043;52.184;8.690;2023-05-07T04:58:55;50.63;;;27.00;;
4055;SDS011;2043;52.184;8.690;2023-05-07T05:01:22;48.30;;;27.97;;
4055;SDS011;2043;52.184;8.690;2023-05-07T05:03:49;48.80;;;27.70;;
4055;SDS011;2043;52.184;8.690;2023-05-07T05:06:16;47.20;;;26.40;;
4055;SDS011;2043;52.184;8.690;2023-05-07T05:08:43;54.23;;;26.97;;
4055;SDS011;2043;52.184;8.690;2023-05-07T05:11:09;50.50;;;26.97;;
4055;SDS011;2043;52.184;8.690;2023-05-07T05:13:36;48.10;;;28.40;;
4055;SDS011;2043;52.184;8.690;2023-05-07T05:16:03;46.27;;;26.10;;
4055;SDS011;2043;52.184;8.690;2023-05-07T05:18:30;48.13;;;26.87;;
4055;SDS011;2043;52.184;8.690;2023-05-07T05:20:57;51.33;;;26.33;;
4055;SDS011;2043;52.184;8.690;2023-05-07T05:23:24;44.43;;;25.97;;
4055;SDS011;2043;52.184;8.690;2023-05-07T05:25:54;41.67;;;26.33;;
4055;SDS011;2043;52.184;8.690;2023-05-07T05:28:22;47.43;;;26.37;;
4055;SDS011;2043;52.184;8.690;2023-05-07T05:30:49;42.93;;;24.80;;
4055;SDS011;2043;52.184;8.690;2023-05-07T05:33:16;44.80;;;25.40;;
4055;SDS011;2043;52.184;8.690;2023-05-07T05:35:43;41.40;;;24.93;;
4055;SDS011;2043;52.184;8.690;2023-05-07T05:38:10;39.53;;;23.63;;
4055;SDS011;2043;52.184;8.690;2023-05-07T05:40:37;43.70;;;24.57;;
4055;SDS011;2043;52.184;8.690;2023-05-07T05:43:03;43.13;;;23.67;;
4055;SDS011;2043;52.184;8.690;2023-05-07T05:45:30;37.43;;;23.27;;
4055;SDS011;2043;52.184;8.690;2023-05-07T05:47:57;47.83;;;23.50;;
4055;SDS011;2043;52.184;8.690;2023-05-07T05:50:24;37.30;;;23.23;;
4055;SDS011;2043;52.184;8.690;2023-05-07T05:52:51;38.47;;;22.63;;
4055;SDS011;2043;52.184;8.690;2023-05-07T05:55:18;37.80;;;22.93;;
4055;SDS011;2043;52.184;8.690;2023-05-07T05:57:44;38.17;;;23.03;;
4055;SDS011;2043;52.184;8.690;2023-05-07T06:00:12;39.53;;;22.30;;
4055;SDS011;2043;52.184;8.690;2023-05-07T06:02:39;34.03;;;21.30;;
4055;SDS011;2043;52.184;8.690;2023-05-07T06:05:07;37.63;;;22.30;;
4055;SDS011;2043;52.184;8.690;2023-05-07T06:07:34;36.70;;;22.70;;
4055;SDS011;2043;52.184;8.690;2023-05-07T06:10:01;38.27;;;22.90;;
4055;SDS011;2043;52.184;8.690;2023-05-07T06:12:27;38.00;;;22.43;;
4055;SDS011;2043;52.184;8.690;2023-05-07T06:14:54;33.83;;;20.60;;
4055;SDS011;2043;52.184;8.690;2023-05-07T06:17:21;36.70;;;21.77;;
4055;SDS011;2043;52.184;8.690;2023-05-07T06:19:48;36.30;;;21.67;;
4055;SDS011;2043;52.184;8.690;2023-05-07T06:22:15;34.20;;;21.00;;
4055;SDS011;2043;52.184;8.690;2023-05-07T06:24:41;35.00;;;20.57;;
4055;SDS011;2043;52.184;8.690;2023-05-07T06:27:08;40.23;;;20.80;;
4055;SDS011;2043;52.184;8.690;2023-05-07T06:29:35;34.60;;;20.87;;
4055;SDS011;2043;52.184;8.690;2023-05-07T06:32:11;36.90;;;20.50;;
4055;SDS011;2043;52.184;8.690;2023-05-07T06:34:39;32.33;;;20.30;;
4055;SDS011;2043;52.184;8.690;2023-05-07T06:37:06;33.73;;;20.43;;
4055;SDS011;2043;52.184;8.690;2023-05-07T06:39:33;33.43;;;20.10;;
4055;SDS011;2043;52.184;8.690;2023-05-07T06:42:00;33.97;;;20.37;;
4055;SDS011;2043;52.184;8.690;2023-05-07T06:44:30;34.80;;;19.77;;
4055;SDS011;2043;52.184;8.690;2023-05-07T06:46:57;30.07;;;18.57;;
4055;SDS011;2043;52.184;8.690;2023-05-07T06:49:25;35.10;;;20.80;;
4055;SDS011;2043;52.184;8.690;2023-05-07T06:51:51;30.10;;;19.60;;
4055;SDS011;2043;52.184;8.690;2023-05-07T06:54:18;33.10;;;20.50;;
4055;SDS011;2043;52.184;8.690;2023-05-07T06:56:46;32.00;;;19.40;;
4055;SDS011;2043;52.184;8.690;2023-05-07T06:59:13;30.70;;;19.90;;
4055;SDS011;2043;52.184;8.690;2023-05-07T07:01:40;30.40;;;18.93;;
4055;SDS011;2043;52.184;8.690;2023-05-07T07:04:07;34.57;;;20.00;;
4055;SDS011;2043;52.184;8.690;2023-05-07T07:06:34;29.50;;;19.57;;
4055;SDS011;2043;52.184;8.690;2023-05-07T07:09:00;35.53;;;19.80;;
4055;SDS011;2043;52.184;8.690;2023-05-07T07:11:27;29.80;;;18.83;;
4055;SDS011;2043;52.184;8.690;2023-05-07T07:13:54;29.00;;;18.30;;
4055;SDS011;2043;52.184;8.690;2023-05-07T07:16:21;31.27;;;18.40;;
4055;SDS011;2043;52.184;8.690;2023-05-07T07:18:48;30.87;;;19.80;;
4055;SDS011;2043;52.184;8.690;2023-05-07T07:21:15;32.90;;;18.97;;
4055;SDS011;2043;52.184;8.690;2023-05-07T07:23:41;32.97;;;19.30;;
4055;SDS011;2043;52.184;8.690;2023-05-07T07:26:08;31.53;;;19.93;;
4055;SDS011;2043;52.184;8.690;2023-05-07T07:28:41;30.80;;;18.60;;
4055;SDS011;2043;52.184;8.690;2023-05-07T07:31:10;28.47;;;18.33;;
4055;SDS011;2043;52.184;8.690;2023-05-07T07:33:37;30.40;;;18.10;;
4055;SDS011;2043;52.184;8.690;2023-05-07T07:36:05;26.50;;;17.30;;
4055;SDS011;2043;52.184;8.690;2023-05-07T07:38:33;33.73;;;19.20;;
4055;SDS011;2043;52.184;8.690;2023-05-07T07:41:00;27.60;;;17.40;;
4055;SDS011;2043;52.184;8.690;2023-05-07T07:43:28;30.53;;;19.10;;
4055;SDS011;2043;52.184;8.690;2023-05-07T07:45:55;29.53;;;17.77;;
4055;SDS011;2043;52.184;8.690;2023-05-07T07:48:21;33.93;;;18.33;;
4055;SDS011;2043;52.184;8.690;2023-05-07T07:50:49;27.90;;;18.90;;
4055;SDS011;2043;52.184;8.690;2023-05-07T07:53:17;27.97;;;17.23;;
4055;SDS011;2043;52.184;8.690;2023-05-07T07:55:44;25.77;;;16.87;;
4055;SDS011;2043;52.184;8.690;2023-05-07T07:58:11;27.90;;;17.70;;
4055;SDS011;2043;52.184;8.690;2023-05-07T08:00:38;26.63;;;17.00;;
4055;SDS011;2043;52.184;8.690;2023-05-07T08:03:05;26.77;;;16.97;;
4055;SDS011;2043;52.184;8.690;2023-05-07T08:05:33;25.03;;;16.50;;
4055;SDS011;2043;52.184;8.690;2023-05-07T08:08:00;26.70;;;16.70;;
4055;SDS011;2043;52.184;8.690;2023-05-07T08:10:27;26.80;;;16.83;;
4055;SDS011;2043;52.184;8.690;2023-05-07T08:12:54;27.63;;;16.83;;
4055;SDS011;2043;52.184;8.690;2023-05-07T08:15:21;30.03;;;17.73;;
4055;SDS011;2043;52.184;8.690;2023-05-07T08:17:47;23.50;;;15.37;;
4055;SDS011;2043;52.184;8.690;2023-05-07T08:20:14;24.87;;;15.80;;
4055;SDS011;2043;52.184;8.690;2023-05-07T08:22:41;24.10;;;15.87;;
4055;SDS011;2043;52.184;8.690;2023-05-07T08:25:08;29.80;;;14.50;;
4055;SDS011;2043;52.184;8.690;2023-05-07T08:27:35;29.93;;;15.30;;
4055;SDS011;2043;52.184;8.690;2023-05-07T08:30:02;23.47;;;13.90;;
4055;SDS011;2043;52.184;8.690;2023-05-07T08:32:29;21.30;;;14.40;;
4055;SDS011;2043;52.184;8.690;2023-05-07T08:34:56;20.93;;;13.50;;
4055;SDS011;2043;52.184;8.690;2023-05-07T08:37:23;21.10;;;13.80;;
4055;SDS011;2043;52.184;8.690;2023-05-07T08:39:50;20.87;;;13.50;;
4055;SDS011;2043;52.184;8.690;2023-05-07T08:42:17;18.60;;;13.17;;
4055;SDS011;2043;52.184;8.690;2023-05-07T08:44:45;19.77;;;13.10;;
4055;SDS011;2043;52.184;8.690;2023-05-07T08:47:13;18.60;;;13.30;;
4055;SDS011;2043;52.184;8.690;2023-05-07T08:49:40;20.97;;;11.80;;
4055;SDS011;2043;52.184;8.690;2023-05-07T08:52:07;17.93;;;11.90;;
4055;SDS011;2043;52.184;8.690;2023-05-07T08:54:36;17.03;;;11.87;;
4055;SDS011;2043;52.184;8.690;2023-05-07T08:57:03;18.43;;;12.13;;
4055;SDS011;2043;52.184;8.690;2023-05-07T08:59:30;17.00;;;11.60;;
4055;SDS011;2043;52.184;8.690;2023-05-07T09:01:57;16.73;;;10.87;;
4055;SDS011;2043;52.184;8.690;2023-05-07T09:04:24;16.90;;;11.97;;
4055;SDS011;2043;52.184;8.690;2023-05-07T09:06:51;21.53;;;11.77;;
4055;SDS011;2043;52.184;8.690;2023-05-07T09:09:18;15.27;;;10.97;;
4055;SDS011;2043;52.184;8.690;2023-05-07T09:11:45;18.73;;;10.80;;
4055;SDS011;2043;52.184;8.690;2023-05-07T09:14:11;17.07;;;11.60;;
4055;SDS011;2043;52.184;8.690;2023-05-07T09:16:39;17.77;;;12.20;;
4055;SDS011;2043;52.184;8.690;2023-05-07T09:19:06;15.63;;;10.80;;
4055;SDS011;2043;52.184;8.690;2023-05-07T09:21:33;15.30;;;10.17;;
4055;SDS011;2043;52.184;8.690;2023-05-07T09:24:00;18.50;;;10.40;;
4055;SDS011;2043;52.184;8.690;2023-05-07T09:26:26;20.50;;;10.33;;
4055;SDS011;2043;52.184;8.690;2023-05-07T09:28:54;15.27;;;10.17;;
4055;SDS011;2043;52.184;8.690;2023-05-07T09:31:21;19.53;;;9.83;;
4055;SDS011;2043;52.184;8.690;2023-05-07T09:33:49;16.40;;;9.97;;
4055;SDS011;2043;52.184;8.690;2023-05-07T09:36:16;13.70;;;9.97;;
4055;SDS011;2043;52.184;8.690;2023-05-07T09:38:44;13.17;;;9.50;;
4055;SDS011;2043;52.184;8.690;2023-05-07T09:41:12;16.70;;;9.63;;
4055;SDS011;2043;52.184;8.690;2023-05-07T09:43:39;14.60;;;10.50;;
4055;SDS011;2043;52.184;8.690;2023-05-07T09:46:07;14.20;;;10.50;;
4055;SDS011;2043;52.184;8.690;2023-05-07T09:48:38;17.43;;;8.80;;
4055;SDS011;2043;52.184;8.690;2023-05-07T09:51:11;17.77;;;9.00;;
4055;SDS011;2043;52.184;8.690;2023-05-07T09:54:00;13.50;;;9.97;;
4055;SDS011;2043;52.184;8.690;2023-05-07T09:56:29;12.00;;;8.90;;
4055;SDS011;2043;52.184;8.690;2023-05-07T09:58:59;14.50;;;9.50;;
4055;SDS011;2043;52.184;8.690;2023-05-07T10:01:27;14.13;;;9.50;;
4055;SDS011;2043;52.184;8.690;2023-05-07T10:03:54;12.80;;;8.70;;
4055;SDS011;2043;52.184;8.690;2023-05-07T10:06:24;12.77;;;8.80;;
4055;SDS011;2043;52.184;8.690;2023-05-07T10:08:51;12.60;;;8.60;;
4055;SDS011;2043;52.184;8.690;2023-05-07T10:11:20;13.33;;;9.00;;
4055;SDS011;2043;52.184;8.690;2023-05-07T10:13:48;14.50;;;9.07;;
4055;SDS011;2043;52.184;8.690;2023-05-07T10:16:16;12.93;;;9.60;;
4055;SDS011;2043;52.184;8.690;2023-05-07T10:18:44;12.70;;;8.77;;
4055;SDS011;2043;52.184;8.690;2023-05-07T10:21:18;12.50;;;8.60;;
4055;SDS011;2043;52.184;8.690;2023-05-07T10:23:50;12.40;;;8.80;;
4055;SDS011;2043;52.184;8.690;2023-05-07T10:26:22;12.00;;;8.90;;
4055;SDS011;2043;52.184;8.690;2023-05-07T10:28:53;12.80;;;8.67;;
4055;SDS011;2043;52.184;8.690;2023-05-07T10:31:28;13.07;;;8.90;;
4055;SDS011;2043;52.184;8.690;2023-05-07T10:34:11;18.03;;;10.53;;
4055;SDS011;2043;52.184;8.690;2023-05-07T10:36:42;14.33;;;10.17;;
4055;SDS011;2043;52.184;8.690;2023-05-07T10:39:10;15.20;;;10.80;;
4055;SDS011;2043;52.184;8.690;2023-05-07T10:41:38;15.87;;;11.37;;
4055;SDS011;2043;52.184;8.690;2023-05-07T10:44:05;15.53;;;10.27;;
4055;SDS011;2043;52.184;8.690;2023-05-07T10:46:32;14.07;;;10.37;;
4055;SDS011;2043;52.184;8.690;2023-05-07T10:51:33;13.50;;;10.00;;
4055;SDS011;2043;52.184;8.690;2023-05-07T10:56:36;17.17;;;10.40;;
4055;SDS011;2043;52.184;8.690;2023-05-07T11:01:57;15.53;;;10.57;;
4055;SDS011;2043;52.184;8.690;2023-05-07T11:04:32;15.10;;;10.70;;
4055;SDS011;2043;52.184;8.690;2023-05-07T11:15:05;17.53;;;10.40;;
4055;SDS011;2043;52.184;8.690;2023-05-07T11:17:52;13.97;;;9.80;;
4055;SDS011;2043;52.184;8.690;2023-05-07T11:20:20;12.63;;;9.17;;
4055;SDS011;2043;52.184;8.690;2023-05-07T11:28:38;16.90;;;9.50;;
4055;SDS011;2043;52.184;8.690;2023-05-07T11:31:06;13.17;;;9.30;;
4055;SDS011;2043;52.184;8.690;2023-05-07T11:33:34;11.87;;;8.87;;
4055;SDS011;2043;52.184;8.690;2023-05-07T11:36:02;13.57;;;9.60;;
4055;SDS011;2043;52.184;8.690;2023-05-07T11:38:30;14.70;;;8.53;;
4055;SDS011;2043;52.184;8.690;2023-05-07T11:40:58;17.33;;;8.70;;
4055;SDS011;2043;52.184;8.690;2023-05-07T11:43:33;14.77;;;8.40;;
4055;SDS011;2043;52.184;8.690;2023-05-07T11:46:08;11.77;;;8.97;;
4055;SDS011;2043;52.184;8.690;2023-05-07T11:48:36;13.47;;;9.17;;
4055;SDS011;2043;52.184;8.690;2023-05-07T11:51:05;11.97;;;7.47;;
4055;SDS011;2043;52.184;8.690;2023-05-07T11:53:36;15.77;;;9.40;;
4055;SDS011;2043;52.184;8.690;2023-05-07T11:56:07;11.03;;;8.30;;
4055;SDS011;2043;52.184;8.690;2023-05-07T11:58:35;11.97;;;8.53;;
4055;SDS011;2043;52.184;8.690;2023-05-07T12:01:02;10.90;;;8.23;;
4055;SDS011;2043;52.184;8.690;2023-05-07T12:03:30;14.33;;;8.47;;
4055;SDS011;2043;52.184;8.690;2023-05-07T12:06:01;12.10;;;7.97;;
4055;SDS011;2043;52.184;8.690;2023-05-07T12:08:28;11.37;;;8.60;;
4055;SDS011;2043;52.184;8.690;2023-05-07T12:10:55;12.00;;;8.27;;
4055;SDS011;2043;52.184;8.690;2023-05-07T12:13:23;9.70;;;7.37;;
4055;SDS011;2043;52.184;8.690;2023-05-07T12:15:52;16.40;;;9.20;;
4055;SDS011;2043;52.184;8.690;2023-05-07T12:18:20;13.73;;;8.57;;
4055;SDS011;2043;52.184;8.690;2023-05-07T12:20:49;15.67;;;8.87;;
4055;SDS011;2043;52.184;8.690;2023-05-07T12:23:16;11.53;;;8.50;;
4055;SDS011;2043;52.184;8.690;2023-05-07T12:25:43;11.20;;;8.70;;
4055;SDS011;2043;52.184;8.690;2023-05-07T12:28:14;13.60;;;9.27;;
4055;SDS011;2043;52.184;8.690;2023-05-07T12:30:42;12.60;;;9.33;;
4055;SDS011;2043;52.184;8.690;2023-05-07T12:33:10;18.23;;;10.30;;
4055;SDS011;2043;52.184;8.690;2023-05-07T12:35:40;12.83;;;9.57;;
4055;SDS011;2043;52.184;8.690;2023-05-07T12:38:09;13.60;;;9.80;;
4055;SDS011;2043;52.184;8.690;2023-05-07T12:40:49;13.73;;;8.83;;
4055;SDS011;2043;52.184;8.690;2023-05-07T12:43:21;13.37;;;9.20;;
4055;SDS011;2043;52.184;8.690;2023-05-07T12:45:55;15.60;;;8.63;;
4055;SDS011;2043;52.184;8.690;2023-05-07T12:48:24;10.83;;;8.73;;
4055;SDS011;2043;52.184;8.690;2023-05-07T12:50:53;12.30;;;9.80;;
4055;SDS011;2043;52.184;8.690;2023-05-07T12:53:21;12.13;;;8.63;;
4055;SDS011;2043;52.184;8.690;2023-05-07T12:55:51;14.00;;;8.90;;
4055;SDS011;2043;52.184;8.690;2023-05-07T12:58:21;14.03;;;9.40;;
4055;SDS011;2043;52.184;8.690;2023-05-07T13:00:51;12.20;;;8.97;;
4055;SDS011;2043;52.184;8.690;2023-05-07T13:03:31;14.50;;;9.83;;
4055;SDS011;2043;52.184;8.690;2023-05-07T13:06:07;12.60;;;8.80;;
4055;SDS011;2043;52.184;8.690;2023-05-07T13:08:41;14.07;;;8.37;;
4055;SDS011;2043;52.184;8.690;2023-05-07T13:11:11;14.30;;;9.80;;
4055;SDS011;2043;52.184;8.690;2023-05-07T13:13:39;10.80;;;8.30;;
4055;SDS011;2043;52.184;8.690;2023-05-07T13:16:07;12.50;;;8.83;;
4055;SDS011;2043;52.184;8.690;2023-05-07T13:18:37;12.80;;;8.70;;
4055;SDS011;2043;52.184;8.690;2023-05-07T13:21:05;11.57;;;8.60;;
4055;SDS011;2043;52.184;8.690;2023-05-07T13:23:31;14.03;;;8.80;;
4055;SDS011;2043;52.184;8.690;2023-05-07T13:25:58;13.37;;;10.53;;
4055;SDS011;2043;52.184;8.690;2023-05-07T13:28:29;16.90;;;9.20;;
4055;SDS011;2043;52.184;8.690;2023-05-07T13:30:56;12.47;;;8.43;;
4055;SDS011;2043;52.184;8.690;2023-05-07T13:33:23;12.47;;;8.80;;
4055;SDS011;2043;52.184;8.690;2023-05-07T13:35:50;14.47;;;8.57;;
4055;SDS011;2043;52.184;8.690;2023-05-07T13:38:17;12.40;;;8.77;;
4055;SDS011;2043;52.184;8.690;2023-05-07T13:40:44;13.43;;;9.77;;
4055;SDS011;2043;52.184;8.690;2023-05-07T13:43:11;13.20;;;9.73;;
4055;SDS011;2043;52.184;8.690;2023-05-07T13:45:37;12.47;;;9.20;;
4055;SDS011;2043;52.184;8.690;2023-05-07T13:48:04;15.13;;;10.53;;
4055;SDS011;2043;52.184;8.690;2023-05-07T13:50:31;14.93;;;11.60;;
4055;SDS011;2043;52.184;8.690;2023-05-07T13:52:58;13.87;;;11.00;;
4055;SDS011;2043;52.184;8.690;2023-05-07T13:55:25;14.97;;;10.10;;
4055;SDS011;2043;52.184;8.690;2023-05-07T13:57:58;14.07;;;10.97;;
4055;SDS011;2043;52.184;8.690;2023-05-07T14:00:27;13.97;;;10.40;;
4055;SDS011;2043;52.184;8.690;2023-05-07T14:02:54;14.53;;;11.67;;
4055;SDS011;2043;52.184;8.690;2023-05-07T14:05:22;15.97;;;11.20;;
4055;SDS011;2043;52.184;8.690;2023-05-07T14:07:50;14.17;;;10.70;;
4055;SDS011;2043;52.184;8.690;2023-05-07T14:10:18;17.00;;;11.50;;
4055;SDS011;2043;52.184;8.690;2023-05-07T14:12:46;14.47;;;11.30;;
4055;SDS011;2043;52.184;8.690;2023-05-07T14:15:13;15.80;;;10.50;;
4055;SDS011;2043;52.184;8.690;2023-05-07T14:17:40;17.80;;;10.80;;
4055;SDS011;2043;52.184;8.690;2023-05-07T14:20:08;13.70;;;10.53;;
4055;SDS011;2043;52.184;8.690;2023-05-07T14:22:36;14.10;;;11.60;;
4055;SDS011;2043;52.184;8.690;2023-05-07T14:25:03;14.10;;;10.20;;
4055;SDS011;2043;52.184;8.690;2023-05-07T14:27:32;12.60;;;9.40;;
4055;SDS011;2043;52.184;8.690;2023-05-07T14:29:59;12.60;;;9.90;;
4055;SDS011;2043;52.184;8.690;2023-05-07T14:32:26;16.03;;;9.30;;
4055;SDS011;2043;52.184;8.690;2023-05-07T14:34:53;12.17;;;8.70;;
4055;SDS011;2043;52.184;8.690;2023-05-07T14:37:20;16.40;;;10.80;;
4055;SDS011;2043;52.184;8.690;2023-05-07T14:39:46;13.37;;;9.60;;
4055;SDS011;2043;52.184;8.690;2023-05-07T14:42:16;11.80;;;9.23;;
4055;SDS011;2043;52.184;8.690;2023-05-07T14:44:43;15.60;;;8.20;;
4055;SDS011;2043;52.184;8.690;2023-05-07T14:47:12;13.83;;;7.87;;
4055;SDS011;2043;52.184;8.690;2023-05-07T14:49:39;10.37;;;7.90;;
4055;SDS011;2043;52.184;8.690;2023-05-07T14:52:07;10.10;;;7.90;;
4055;SDS011;2043;52.184;8.690;2023-05-07T14:54:36;12.37;;;9.50;;
4055;SDS011;2043;52.184;8.690;2023-05-07T14:57:04;16.20;;;9.73;;
4055;SDS011;2043;52.184;8.690;2023-05-07T14:59:32;13.77;;;9.10;;
4055;SDS011;2043;52.184;8.690;2023-05-07T15:01:59;14.53;;;9.17;;
4055;SDS011;2043;52.184;8.690;2023-05-07T15:04:30;12.30;;;8.93;;
4055;SDS011;2043;52.184;8.690;2023-05-07T15:06:57;13.47;;;8.60;;
4055;SDS011;2043;52.184;8.690;2023-05-07T15:09:24;15.17;;;10.93;;
4055;SDS011;2043;52.184;8.690;2023-05-07T15:11:51;21.30;;;10.70;;
4055;SDS011;2043;52.184;8.690;2023-05-07T15:14:18;13.57;;;8.63;;
4055;SDS011;2043;52.184;8.690;2023-05-07T15:16:45;11.87;;;8.50;;
4055;SDS011;2043;52.184;8.690;2023-05-07T15:19:12;13.07;;;9.70;;